Time;durP1;ratioP1;P1;durP2;ratioP2;P2;SDS_P1;SDS_P2;PMS_P1;PMS_P2;Temp;Humidity;BMP_temperature;BMP_pressure;BME280_temperature;BME280_humidity;BME280_pressure;Samples;Min_cycle;Max_cycle;Signal;HPM_P1;HPM_P2
2022/04/15 00:00:05;;;;;;;0.43;0.30;;;25.80;40.60;;;;;;5061815;28;20041;-55
2022/04/15 00:02:38;;;;;;;0.82;0.10;;;25.90;40.70;;;;;;5066520;28;20093;-54
2022/04/15 00:05:29;;;;;;;0.38;0.17;;;25.90;40.70;;;;;;5068469;28;20098;-51
2022/04/15 00:07:55;;;;;;;0.55;0.30;;;25.90;40.60;;;;;;5062732;28;20066;-55
2022/04/15 00:10:23;;;;;;;1.85;0.63;;;26.00;40.70;;;;;;5049966;28;20410;-51
2022/04/15 00:12:54;;;;;;;0.50;0.10;;;26.00;40.70;;;;;;5064131;28;20555;-52
2022/04/15 00:15:21;;;;;;;0.55;0.10;;;26.00;40.70;;;;;;5074638;28;20127;-53
2022/04/15 00:17:48;;;;;;;0.32;0.10;;;26.00;40.70;;;;;;5061812;28;20520;-53
2022/04/15 00:20:16;;;;;;;1.95;0.10;;;26.10;40.80;;;;;;5070176;28;20037;-53
2022/04/15 00:22:43;;;;;;;0.73;0.10;;;26.10;40.80;;;;;;5064579;28;20048;-54
2022/04/15 00:25:10;;;;;;;0.47;0.10;;;26.10;40.80;;;;;;5067322;28;20040;-52
2022/04/15 00:27:38;;;;;;;0.45;0.10;;;26.10;40.80;;;;;;5068444;28;21437;-51
2022/04/15 00:30:08;;;;;;;0.40;0.10;;;26.10;40.70;;;;;;5065397;28;20810;-54
2022/04/15 00:32:36;;;;;;;4.57;1.38;;;26.20;40.80;;;;;;5067615;28;20643;-53
2022/04/15 00:35:03;;;;;;;7.40;0.50;;;26.20;40.80;;;;;;5067731;28;20508;-53
2022/04/15 00:37:31;;;;;;;0.43;0.43;;;26.10;40.70;;;;;;5064452;28;20033;-53
2022/04/15 00:39:58;;;;;;;1.85;0.40;;;26.20;40.80;;;;;;5063086;28;20140;-55
2022/04/15 00:42:26;;;;;;;2.30;0.10;;;26.20;40.80;;;;;;5066963;28;20143;-53
2022/04/15 00:44:54;;;;;;;0.25;0.10;;;26.20;40.80;;;;;;5068032;28;20196;-55
2022/04/15 00:47:46;;;;;;;0.10;0.10;;;26.20;41.00;;;;;;5066856;28;20048;-55
2022/04/15 00:50:14;;;;;;;0.80;0.22;;;26.30;40.80;;;;;;5076341;28;20105;-53
2022/04/15 00:52:44;;;;;;;0.10;0.10;;;26.20;40.90;;;;;;5065146;28;20053;-56
2022/04/15 00:55:11;;;;;;;4.78;0.30;;;26.20;40.90;;;;;;5071521;28;20541;-51
2022/04/15 00:57:41;;;;;;;0.38;0.20;;;26.20;40.90;;;;;;5066421;28;20050;-50
2022/04/15 01:00:11;;;;;;;1.00;0.22;;;26.20;40.90;;;;;;5068530;28;20249;-51
2022/04/15 01:02:39;;;;;;;1.95;0.13;;;26.30;41.00;;;;;;5077084;28;20054;-52
2022/04/15 01:05:10;;;;;;;0.20;0.10;;;26.20;41.10;;;;;;5067714;28;20044;-56
2022/04/15 01:07:39;;;;;;;0.15;0.10;;;26.30;41.10;;;;;;5044474;28;20043;-54
2022/04/15 01:10:09;;;;;;;1.10;0.10;;;26.30;41.10;;;;;;5062126;28;20040;-56
2022/04/15 01:12:40;;;;;;;0.10;0.10;;;26.30;41.20;;;;;;5068407;28;20091;-55
2022/04/15 01:15:09;;;;;;;0.45;0.10;;;26.30;41.30;;;;;;5062546;28;20447;-53
2022/04/15 01:17:37;;;;;;;1.60;0.10;;;26.30;41.30;;;;;;5065756;28;20044;-53
2022/04/15 01:20:08;;;;;;;0.80;0.10;;;26.30;41.40;;;;;;5067648;28;20123;-51
2022/04/15 01:22:39;;;;;;;1.25;0.17;;;26.30;41.40;;;;;;5067763;28;20432;-50
2022/04/15 01:25:09;;;;;;;0.10;0.10;;;26.30;41.50;;;;;;5066105;28;20857;-55
2022/04/15 01:27:38;;;;;;;1.08;0.10;;;26.30;41.50;;;;;;5068975;28;20131;-54
2022/04/15 01:30:06;;;;;;;0.20;0.10;;;26.30;41.60;;;;;;5061245;28;20049;-55
2022/04/15 01:32:34;;;;;;;1.35;0.10;;;26.30;41.70;;;;;;5066594;28;20065;-53
2022/04/15 01:35:01;;;;;;;0.77;0.10;;;26.30;41.70;;;;;;5068197;28;20037;-54
2022/04/15 01:37:29;;;;;;;0.40;0.13;;;26.30;41.70;;;;;;5062710;28;20125;-56
2022/04/15 01:39:57;;;;;;;2.83;0.10;;;26.30;41.80;;;;;;5063166;28;20079;-56
2022/04/15 01:42:26;;;;;;;0.20;0.10;;;26.30;41.90;;;;;;5063792;28;20583;-53
2022/04/15 01:44:53;;;;;;;0.17;0.15;;;26.30;41.80;;;;;;5069824;28;20041;-54
2022/04/15 01:47:20;;;;;;;0.55;0.10;;;26.20;41.80;;;;;;5062659;28;20480;-56
2022/04/15 01:49:47;;;;;;;0.85;0.13;;;26.30;41.80;;;;;;5059833;28;20044;-52
2022/04/15 01:52:14;;;;;;;0.20;0.10;;;26.30;41.90;;;;;;5065029;28;20051;-55
2022/04/15 01:54:41;;;;;;;1.15;0.10;;;26.30;41.90;;;;;;5066203;28;20166;-56
2022/04/15 01:57:08;;;;;;;0.40;0.10;;;26.30;41.90;;;;;;5062870;28;20066;-54
2022/04/15 01:59:36;;;;;;;0.10;0.10;;;26.30;41.90;;;;;;5062856;28;20051;-58
2022/04/15 02:02:04;;;;;;;0.65;0.10;;;26.30;42.00;;;;;;5065803;28;20075;-55
2022/04/15 02:04:31;;;;;;;0.20;0.10;;;26.30;42.00;;;;;;5061354;28;20043;-55
2022/04/15 02:06:59;;;;;;;0.80;0.10;;;26.30;42.00;;;;;;5064109;28;20129;-54
2022/04/15 02:09:26;;;;;;;1.75;0.20;;;26.20;42.00;;;;;;5066546;28;20052;-54
2022/04/15 02:11:53;;;;;;;0.00;0.00;;;26.30;42.10;;;;;;5062490;28;20046;-49
2022/04/15 02:14:21;;;;;;;0.25;0.17;;;26.20;42.10;;;;;;5071373;28;20068;-56
2022/04/15 02:16:52;;;;;;;1.55;0.10;;;26.20;42.10;;;;;;5063010;28;20082;-53
2022/04/15 02:19:19;;;;;;;0.75;0.52;;;26.20;42.10;;;;;;5059729;28;20051;-55
2022/04/15 02:21:46;;;;;;;0.30;0.10;;;26.20;42.70;;;;;;5061470;28;20428;-53
2022/04/15 02:24:14;;;;;;;0.15;0.10;;;26.20;42.10;;;;;;5062988;28;20037;-52
2022/04/15 02:26:41;;;;;;;1.45;0.10;;;26.20;42.10;;;;;;5068833;28;20048;-54
2022/04/15 02:29:08;;;;;;;0.20;0.10;;;26.20;42.10;;;;;;5063029;28;20096;-54
2022/04/15 02:31:35;;;;;;;2.92;0.15;;;26.20;42.10;;;;;;5062991;28;20063;-54
2022/04/15 02:34:04;;;;;;;0.38;0.10;;;26.20;42.10;;;;;;5063691;28;20070;-54
2022/04/15 02:36:31;;;;;;;1.05;0.10;;;26.20;42.10;;;;;;5064036;28;20094;-49
2022/04/15 02:38:58;;;;;;;0.20;0.10;;;26.20;42.20;;;;;;5057425;28;20094;-56
2022/04/15 02:41:25;;;;;;;0.20;0.10;;;26.10;42.10;;;;;;5066328;28;20037;-57
2022/04/15 02:43:54;;;;;;;0.35;0.10;;;26.20;42.30;;;;;;5065296;28;20127;-55
2022/04/15 02:46:21;;;;;;;2.33;0.10;;;26.10;42.30;;;;;;5060535;28;20044;-57
2022/04/15 02:48:48;;;;;;;0.40;0.10;;;26.10;42.30;;;;;;5058060;28;20051;-55
2022/04/15 02:51:17;;;;;;;2.50;0.15;;;26.10;42.30;;;;;;5073801;28;20039;-52
2022/04/15 02:53:44;;;;;;;0.68;0.10;;;26.10;42.30;;;;;;5062393;28;20147;-52
2022/04/15 02:56:11;;;;;;;0.57;0.20;;;26.10;42.40;;;;;;5073415;28;20172;-49
2022/04/15 02:58:38;;;;;;;0.32;0.20;;;26.10;42.50;;;;;;5062359;28;20595;-51
2022/04/15 03:01:05;;;;;;;1.08;0.20;;;26.10;42.60;;;;;;5043036;28;20890;-53
2022/04/15 03:03:34;;;;;;;0.10;0.10;;;26.10;42.60;;;;;;5064624;28;20068;-52
2022/04/15 03:06:02;;;;;;;0.98;0.20;;;26.00;42.60;;;;;;5062890;28;20041;-53
2022/04/15 03:08:31;;;;;;;0.70;0.17;;;26.10;42.70;;;;;;5063141;28;20090;-53
2022/04/15 03:11:00;;;;;;;0.15;0.10;;;26.00;42.70;;;;;;5066815;28;20090;-51
2022/04/15 03:13:27;;;;;;;0.52;0.10;;;26.00;42.70;;;;;;5073282;28;20044;-52
2022/04/15 03:15:54;;;;;;;0.15;0.10;;;26.00;42.70;;;;;;5062201;28;20535;-53
2022/04/15 03:18:21;;;;;;;0.20;0.10;;;26.00;42.70;;;;;;5059514;28;20043;-53
2022/04/15 03:20:48;;;;;;;1.60;0.10;;;26.00;42.80;;;;;;5061565;28;20400;-52
2022/04/15 03:23:15;;;;;;;0.80;0.52;;;26.00;42.80;;;;;;5063648;28;20078;-54
2022/04/15 03:25:43;;;;;;;0.47;0.20;;;26.00;42.90;;;;;;5064015;28;20129;-53
2022/04/15 03:28:10;;;;;;;0.15;0.10;;;26.00;42.90;;;;;;5061753;28;20623;-53
2022/04/15 03:30:37;;;;;;;0.20;0.10;;;26.00;42.90;;;;;;5065073;28;20579;-52
2022/04/15 03:33:05;;;;;;;0.43;0.10;;;25.90;42.90;;;;;;5061366;28;20064;-55
2022/04/15 03:35:32;;;;;;;0.43;0.10;;;25.90;42.90;;;;;;5061619;28;20576;-53
2022/04/15 03:37:59;;;;;;;0.10;0.10;;;25.90;43.00;;;;;;5062452;28;20125;-55
2022/04/15 03:40:26;;;;;;;0.52;0.20;;;25.90;43.00;;;;;;5060877;28;20040;-51
2022/04/15 03:42:56;;;;;;;0.28;0.10;;;25.90;43.00;;;;;;5066286;28;20175;-51
2022/04/15 03:45:24;;;;;;;0.40;0.10;;;25.90;43.00;;;;;;5061895;28;20040;-51
2022/04/15 03:47:52;;;;;;;0.65;0.17;;;25.90;43.00;;;;;;5060259;28;20049;-50
2022/04/15 03:50:19;;;;;;;0.65;0.10;;;25.90;43.10;;;;;;5072195;28;20052;-54
2022/04/15 03:52:48;;;;;;;0.10;0.10;;;25.90;43.10;;;;;;5065048;28;20048;-52
2022/04/15 03:55:16;;;;;;;0.10;0.10;;;25.90;43.10;;;;;;5065366;28;20041;-54
2022/04/15 03:57:43;;;;;;;0.30;0.30;;;25.80;43.00;;;;;;5064684;28;20048;-52
2022/04/15 04:00:14;;;;;;;0.57;0.10;;;25.80;43.00;;;;;;5062735;28;20109;-53
2022/04/15 04:02:43;;;;;;;0.68;0.10;;;25.80;43.00;;;;;;5064275;28;20064;-50
2022/04/15 04:05:11;;;;;;;0.10;0.10;;;25.80;43.00;;;;;;5071625;28;20040;-53
2022/04/15 04:07:38;;;;;;;0.20;0.10;;;25.80;43.00;;;;;;5066677;28;20040;-53
2022/04/15 04:10:06;;;;;;;0.43;0.15;;;25.80;43.00;;;;;;5061937;28;20040;-53
2022/04/15 04:12:35;;;;;;;1.00;0.10;;;25.80;43.10;;;;;;5060261;28;20063;-55
2022/04/15 04:15:02;;;;;;;1.65;0.20;;;25.80;43.10;;;;;;5061466;28;20049;-54
2022/04/15 04:17:30;;;;;;;0.25;0.20;;;25.70;43.00;;;;;;5063006;28;20128;-54
2022/04/15 04:19:57;;;;;;;0.25;0.10;;;25.80;43.00;;;;;;5064688;28;20048;-55
2022/04/15 04:22:28;;;;;;;2.55;0.10;;;25.80;43.00;;;;;;5064254;28;20048;-54
2022/04/15 04:24:55;;;;;;;1.90;0.10;;;25.80;43.00;;;;;;5065050;28;20040;-55
2022/04/15 04:27:22;;;;;;;0.82;0.20;;;25.70;42.90;;;;;;5064804;28;20051;-54
2022/04/15 04:29:49;;;;;;;3.55;0.40;;;25.70;43.00;;;;;;5068953;28;20053;-55
2022/04/15 04:32:17;;;;;;;0.38;0.10;;;25.70;43.00;;;;;;5062802;28;20045;-55
2022/04/15 04:34:46;;;;;;;2.15;0.55;;;25.70;43.00;;;;;;5062419;28;20147;-52
2022/04/15 04:37:13;;;;;;;0.63;0.10;;;25.70;43.10;;;;;;5065409;28;20036;-55
2022/04/15 04:39:40;;;;;;;0.63;0.10;;;25.60;43.20;;;;;;5065116;28;20044;-55
2022/04/15 04:42:08;;;;;;;0.40;0.10;;;25.60;43.80;;;;;;5062329;28;20528;-56
2022/04/15 04:44:38;;;;;;;1.17;0.20;;;25.60;43.20;;;;;;5065083;28;20052;-55
2022/04/15 04:47:06;;;;;;;0.20;0.20;;;25.60;43.20;;;;;;5066379;28;20051;-56
2022/04/15 04:49:33;;;;;;;3.03;0.10;;;25.50;43.10;;;;;;5059464;28;20051;-56
2022/04/15 04:52:02;;;;;;;0.47;0.10;;;25.50;43.10;;;;;;5063079;28;20127;-55
2022/04/15 04:54:30;;;;;;;0.10;0.10;;;25.50;43.10;;;;;;5063399;28;20060;-56
2022/04/15 04:56:57;;;;;;;0.85;0.10;;;25.50;43.10;;;;;;5058450;28;20045;-55
2022/04/15 04:59:25;;;;;;;1.08;0.10;;;25.50;43.10;;;;;;5064418;28;20040;-56
2022/04/15 05:01:52;;;;;;;0.10;0.10;;;25.50;43.10;;;;;;5063101;28;20065;-54
2022/04/15 05:04:19;;;;;;;0.25;0.10;;;25.50;43.20;;;;;;5060897;28;20067;-54
2022/04/15 05:06:46;;;;;;;0.20;0.10;;;25.50;43.20;;;;;;5063049;28;20044;-53
2022/04/15 05:09:15;;;;;;;0.25;0.10;;;25.50;43.20;;;;;;5058518;28;20531;-55
2022/04/15 05:11:42;;;;;;;0.45;0.10;;;25.50;43.10;;;;;;5065396;28;20101;-56
2022/04/15 05:14:09;;;;;;;0.20;0.10;;;25.50;43.20;;;;;;5064855;28;20041;-52
2022/04/15 05:16:36;;;;;;;0.10;0.10;;;25.50;43.20;;;;;;5062833;28;20497;-50
2022/04/15 05:19:03;;;;;;;0.80;0.10;;;25.50;43.10;;;;;;5065050;28;20270;-53
2022/04/15 05:21:30;;;;;;;0.10;0.10;;;25.50;43.10;;;;;;5067578;28;20052;-52
2022/04/15 05:23:57;;;;;;;0.55;0.10;;;25.40;43.70;;;;;;5065215;28;20599;-56
2022/04/15 05:26:26;;;;;;;1.02;0.10;;;25.40;43.10;;;;;;5061681;28;20110;-54
2022/04/15 05:28:53;;;;;;;0.52;0.10;;;25.40;43.20;;;;;;5058928;28;20146;-54
2022/04/15 05:31:20;;;;;;;0.30;0.20;;;25.40;43.20;;;;;;5061690;28;20723;-54
2022/04/15 05:33:47;;;;;;;0.80;0.10;;;25.40;43.20;;;;;;5061975;28;20865;-50
2022/04/15 05:36:14;;;;;;;3.83;0.10;;;25.40;43.20;;;;;;5070317;28;20072;-55
2022/04/15 05:38:41;;;;;;;0.40;0.10;;;25.40;43.20;;;;;;5067924;28;20070;-55
2022/04/15 05:41:08;;;;;;;1.65;0.20;;;25.40;43.20;;;;;;5067632;28;20036;-54
2022/04/15 05:43:37;;;;;;;0.88;0.10;;;25.40;43.30;;;;;;5065117;28;20040;-55
2022/04/15 05:46:04;;;;;;;1.30;0.45;;;25.40;43.30;;;;;;5067053;28;20152;-54
2022/04/15 05:48:32;;;;;;;0.70;0.10;;;25.40;43.30;;;;;;5060546;28;20203;-56
2022/04/15 05:50:59;;;;;;;0.55;0.10;;;25.40;43.30;;;;;;5062818;28;20040;-55
2022/04/15 05:53:26;;;;;;;0.20;0.13;;;25.30;43.90;;;;;;5063411;28;20367;-51
2022/04/15 05:55:53;;;;;;;0.60;0.20;;;25.30;43.40;;;;;;5065271;28;20068;-56
2022/04/15 05:58:20;;;;;;;0.13;0.10;;;25.30;43.30;;;;;;5058398;28;20571;-54
2022/04/15 06:00:48;;;;;;;0.52;0.10;;;25.30;43.30;;;;;;5063828;28;20980;-55
2022/04/15 06:03:15;;;;;;;2.47;0.20;;;25.30;43.30;;;;;;5057749;28;20116;-55
2022/04/15 06:05:42;;;;;;;0.57;0.10;;;25.30;43.30;;;;;;5060732;28;20037;-55
2022/04/15 06:08:09;;;;;;;0.65;0.20;;;25.30;43.30;;;;;;5062324;28;20424;-54
2022/04/15 06:10:36;;;;;;;0.40;0.20;;;25.30;43.30;;;;;;5061016;28;20068;-53
2022/04/15 06:13:09;;;;;;;3.13;0.13;;;25.30;43.30;;;;;;5042760;28;20059;-57
2022/04/15 06:15:41;;;;;;;1.38;0.13;;;25.40;43.30;;;;;;5072163;28;20047;-54
2022/04/15 06:18:09;;;;;;;0.93;0.10;;;25.40;43.20;;;;;;5061723;28;20065;-57
2022/04/15 06:20:40;;;;;;;2.72;0.20;;;25.40;43.20;;;;;;5065681;28;20051;-57
2022/04/15 06:23:07;;;;;;;0.60;0.20;;;25.40;43.10;;;;;;5067547;28;20115;-57
2022/04/15 06:25:34;;;;;;;1.25;0.47;;;25.40;43.00;;;;;;5060396;28;20037;-56
2022/04/15 06:28:01;;;;;;;1.05;0.25;;;25.50;43.10;;;;;;5055562;28;20104;-56
2022/04/15 06:30:29;;;;;;;0.60;0.20;;;25.50;43.10;;;;;;5065307;28;20047;-54
2022/04/15 06:32:56;;;;;;;2.55;0.35;;;25.50;43.00;;;;;;5065586;28;20036;-57
2022/04/15 06:35:24;;;;;;;0.77;0.20;;;25.50;42.90;;;;;;5062685;28;20037;-57
2022/04/15 06:37:52;;;;;;;0.30;0.10;;;25.50;42.80;;;;;;5061270;28;20052;-51
2022/04/15 06:40:20;;;;;;;1.20;0.17;;;25.60;42.90;;;;;;5058977;28;20056;-57
2022/04/15 06:42:47;;;;;;;0.40;0.20;;;25.60;42.90;;;;;;5044900;28;20155;-57
2022/04/15 06:45:14;;;;;;;0.10;0.10;;;25.60;42.90;;;;;;5061044;28;20048;-55
2022/04/15 06:47:41;;;;;;;0.20;0.10;;;25.60;42.80;;;;;;5058661;28;20045;-55
2022/04/15 06:50:09;;;;;;;0.30;0.20;;;25.60;42.80;;;;;;5057499;28;20040;-54
2022/04/15 06:52:38;;;;;;;3.80;0.30;;;25.70;42.80;;;;;;5058248;28;20424;-56
2022/04/15 06:55:06;;;;;;;3.50;0.28;;;25.70;42.80;;;;;;5059053;28;20116;-54
2022/04/15 06:57:33;;;;;;;0.20;0.20;;;25.70;42.80;;;;;;5057684;28;20118;-55
2022/04/15 07:00:01;;;;;;;0.85;0.35;;;25.70;42.70;;;;;;5056862;28;20077;-53
2022/04/15 07:02:28;;;;;;;0.82;0.20;;;25.70;42.60;;;;;;5062281;28;20089;-56
2022/04/15 07:04:55;;;;;;;0.20;0.20;;;25.80;42.70;;;;;;5063841;28;20509;-56
2022/04/15 07:07:23;;;;;;;0.80;0.75;;;25.80;42.60;;;;;;5060464;28;20123;-57
2022/04/15 07:09:52;;;;;;;2.28;0.20;;;25.90;42.60;;;;;;5039484;28;20074;-50
2022/04/15 07:12:20;;;;;;;0.68;0.55;;;25.90;42.60;;;;;;5060150;28;20078;-57
2022/04/15 07:14:47;;;;;;;2.58;0.28;;;26.00;42.90;;;;;;5061219;28;20047;-57
2022/04/15 07:17:14;;;;;;;2.20;0.30;;;26.00;42.90;;;;;;5062062;28;20509;-60
2022/04/15 07:19:41;;;;;;;3.17;0.20;;;26.10;43.10;;;;;;5064060;28;20040;-65
2022/04/15 07:22:08;;;;;;;0.50;0.50;;;26.20;43.10;;;;;;5070524;28;20044;-63
2022/04/15 07:24:36;;;;;;;1.20;0.30;;;26.30;43.10;;;;;;5061727;28;20127;-61
2022/04/15 07:27:05;;;;;;;1.45;0.30;;;26.40;43.00;;;;;;5067908;28;20091;-53
2022/04/15 07:29:32;;;;;;;0.57;0.57;;;26.40;42.80;;;;;;5064580;28;20721;-51
2022/04/15 07:32:00;;;;;;;2.67;0.75;;;26.50;42.80;;;;;;5056110;28;20095;-56
2022/04/15 07:34:27;;;;;;;2.72;0.40;;;26.50;42.60;;;;;;5066132;28;20127;-53
2022/04/15 07:36:59;;;;;;;2.35;0.35;;;26.60;42.50;;;;;;5068348;28;20048;-57
2022/04/15 07:39:26;;;;;;;4.32;0.43;;;26.60;42.50;;;;;;5069025;28;20063;-56
2022/04/15 07:41:53;;;;;;;3.58;0.55;;;26.70;42.40;;;;;;5061101;28;20044;-58
2022/04/15 07:44:22;;;;;;;1.35;0.57;;;26.80;42.40;;;;;;5068185;28;20091;-57
2022/04/15 07:46:49;;;;;;;5.32;0.60;;;26.90;42.40;;;;;;5072580;28;20052;-55
2022/04/15 07:49:17;;;;;;;2.78;0.75;;;26.90;42.10;;;;;;5068810;28;20047;-77
2022/04/15 07:51:44;;;;;;;1.17;0.30;;;27.00;42.10;;;;;;5030545;28;20513;-77
2022/04/15 07:54:12;;;;;;;2.13;0.40;;;27.20;42.00;;;;;;5066361;28;20064;-63
2022/04/15 07:56:39;;;;;;;3.42;0.73;;;27.30;41.90;;;;;;5049378;28;20052;-63
2022/04/15 07:59:07;;;;;;;0.88;0.30;;;27.30;41.80;;;;;;5047247;28;20044;-55
2022/04/15 08:01:35;;;;;;;0.75;0.30;;;27.40;41.70;;;;;;5062240;28;20512;-56
2022/04/15 08:04:03;;;;;;;1.23;0.80;;;27.50;41.50;;;;;;5063355;28;20040;-52
2022/04/15 08:06:30;;;;;;;1.08;0.98;;;27.50;41.40;;;;;;5066104;28;20185;-50
2022/04/15 08:08:58;;;;;;;0.45;0.30;;;27.60;41.30;;;;;;5044956;28;20600;-53
2022/04/15 08:11:26;;;;;;;1.77;0.63;;;27.70;41.30;;;;;;5056368;28;20065;-58
2022/04/15 08:13:54;;;;;;;0.98;0.57;;;27.70;41.10;;;;;;5066193;28;20512;-54
2022/04/15 08:16:23;;;;;;;1.40;1.02;;;27.80;41.10;;;;;;5066831;28;20068;-60
2022/04/15 08:18:54;;;;;;;2.60;1.05;;;27.90;41.20;;;;;;5065960;28;20055;-59
2022/04/15 08:21:21;;;;;;;1.92;1.02;;;27.90;41.10;;;;;;5069008;28;20114;-57
2022/04/15 08:23:49;;;;;;;4.80;0.70;;;28.00;41.00;;;;;;5053168;28;20044;-58
2022/04/15 08:26:16;;;;;;;3.20;0.50;;;28.00;40.90;;;;;;5067348;28;20152;-54
2022/04/15 08:28:43;;;;;;;1.10;1.00;;;28.10;40.90;;;;;;5063208;28;20819;-51
2022/04/15 08:31:11;;;;;;;3.70;1.08;;;28.10;41.50;;;;;;5065160;28;20066;-55
2022/04/15 08:33:40;;;;;;;1.00;0.80;;;28.10;40.70;;;;;;5063013;28;20123;-52
2022/04/15 08:36:09;;;;;;;2.03;0.52;;;28.20;40.70;;;;;;5028983;28;20358;-56
2022/04/15 08:38:36;;;;;;;1.33;0.80;;;28.20;40.60;;;;;;5056900;28;20040;-65
2022/04/15 08:41:06;;;;;;;1.30;0.63;;;28.20;40.50;;;;;;5048955;28;20044;-58
2022/04/15 08:43:33;;;;;;;2.85;1.02;;;28.20;40.40;;;;;;5063599;28;20049;-56
2022/04/15 08:46:04;;;;;;;0.63;0.50;;;28.30;40.40;;;;;;5058760;28;20048;-55
2022/04/15 08:48:32;;;;;;;1.50;0.82;;;28.30;40.40;;;;;;5052018;28;20049;-51
2022/04/15 08:51:00;;;;;;;1.42;0.77;;;28.30;40.40;;;;;;5046692;28;20051;-51
2022/04/15 08:53:31;;;;;;;1.75;0.75;;;28.30;40.90;;;;;;5039211;28;20044;-49
2022/04/15 08:55:59;;;;;;;2.00;0.43;;;28.30;40.20;;;;;;5059304;28;20409;-54
2022/04/15 08:58:27;;;;;;;2.50;0.50;;;28.30;40.10;;;;;;5043865;28;20118;-53
2022/04/15 09:00:54;;;;;;;1.00;0.50;;;28.30;40.10;;;;;;5064832;28;20102;-59
2022/04/15 09:03:22;;;;;;;3.50;0.95;;;28.40;40.10;;;;;;5062279;28;20086;-54
2022/04/15 09:05:51;;;;;;;2.28;0.63;;;28.40;40.00;;;;;;5058141;28;20037;-61
2022/04/15 09:08:18;;;;;;;0.75;0.40;;;28.40;39.80;;;;;;5061721;28;20060;-59
2022/04/15 09:10:59;;;;;;;2.38;0.63;;;28.50;39.80;;;;;;5039179;28;20045;-60
2022/04/15 09:13:31;;;;;;;3.55;1.08;;;28.50;39.60;;;;;;5060439;28;20128;-54
2022/04/15 09:16:01;;;;;;;1.77;0.90;;;28.50;39.60;;;;;;5058919;28;20040;-60
2022/04/15 09:18:30;;;;;;;3.05;1.05;;;28.60;39.50;;;;;;5058589;28;20040;-58
2022/04/15 09:21:21;;;;;;;3.60;1.15;;;28.60;39.50;;;;;;5057511;28;20037;-54
2022/04/15 09:23:50;;;;;;;1.55;0.82;;;28.60;39.40;;;;;;5064013;28;20047;-59
2022/04/15 09:26:20;;;;;;;6.20;1.52;;;28.60;39.50;;;;;;5048718;28;20040;-52
2022/04/15 09:28:48;;;;;;;9.25;1.58;;;28.60;39.50;;;;;;5064457;28;20051;-51
2022/04/15 09:31:16;;;;;;;10.35;2.42;;;28.60;39.30;;;;;;5067086;28;20045;-47
2022/04/15 09:33:51;;;;;;;5.10;1.88;;;28.50;39.20;;;;;;5062004;28;20055;-59
2022/04/15 09:36:31;;;;;;;6.60;1.27;;;28.50;39.30;;;;;;5050742;28;20047;-48
2022/04/15 09:39:00;;;;;;;6.90;1.88;;;28.40;39.30;;;;;;5055136;28;20060;-49
2022/04/15 09:41:30;;;;;;;10.95;1.38;;;28.40;39.40;;;;;;5065422;28;20036;-47
2022/04/15 09:43:59;;;;;;;4.20;1.95;;;28.40;39.40;;;;;;5065200;28;20532;-48
2022/04/15 09:46:30;;;;;;;6.93;1.35;;;28.30;39.30;;;;;;5063913;28;20153;-51
2022/04/15 09:49:01;;;;;;;7.85;2.35;;;28.30;39.30;;;;;;5045497;28;20036;-50
2022/04/15 09:51:29;;;;;;;4.32;1.02;;;28.30;39.30;;;;;;5063723;28;20127;-50
2022/04/15 09:54:01;;;;;;;2.72;1.52;;;28.30;39.30;;;;;;5062541;28;20090;-51
2022/04/15 09:56:33;;;;;;;7.68;0.95;;;28.30;39.80;;;;;;5061352;28;20048;-48
2022/04/15 09:59:05;;;;;;;5.53;1.40;;;28.20;39.10;;;;;;5064928;28;20044;-51
2022/04/15 10:01:34;;;;;;;3.60;1.05;;;28.20;39.10;;;;;;5062392;28;20135;-47
2022/04/15 10:04:03;;;;;;;6.10;0.47;;;28.20;39.00;;;;;;5061286;28;20489;-52
2022/04/15 10:06:32;;;;;;;4.75;1.48;;;28.20;37.30;;;;;;5064392;28;20461;-59
2022/04/15 10:09:02;;;;;;;2.38;0.30;;;28.00;36.90;;;;;;5063588;28;20036;-54
2022/04/15 10:11:35;;;;;;;1.42;0.28;;;27.90;36.50;;;;;;5063799;28;20141;-55
2022/04/15 10:14:03;;;;;;;1.15;0.43;;;27.70;36.20;;;;;;5064257;28;20518;-50
2022/04/15 10:16:32;;;;;;;6.85;0.52;;;27.50;36.30;;;;;;5063120;28;20048;-59
2022/04/15 10:19:02;;;;;;;1.98;0.28;;;27.40;36.50;;;;;;5061701;28;20052;-52
2022/04/15 10:21:33;;;;;;;0.85;0.17;;;27.30;36.50;;;;;;5067907;28;20523;-60
2022/04/15 10:24:02;;;;;;;2.47;0.30;;;27.20;36.50;;;;;;5066505;28;20036;-46
2022/04/15 10:26:36;;;;;;;0.63;0.20;;;27.10;36.60;;;;;;5049073;28;20482;-60
2022/04/15 10:29:05;;;;;;;2.67;0.45;;;27.00;36.70;;;;;;5063156;28;20059;-50
2022/04/15 10:31:39;;;;;;;1.65;0.10;;;27.00;36.70;;;;;;5062797;28;20132;-53
2022/04/15 10:34:13;;;;;;;2.20;0.10;;;26.90;36.50;;;;;;5055933;28;20139;-56
2022/04/15 10:36:48;;;;;;;1.50;0.50;;;26.90;36.50;;;;;;5063269;28;20049;-57
2022/04/15 10:39:17;;;;;;;0.40;0.10;;;26.90;36.40;;;;;;5063676;28;20055;-54
2022/04/15 10:42:01;;;;;;;1.35;0.22;;;26.80;36.50;;;;;;5062717;28;20051;-55
2022/04/15 10:44:32;;;;;;;0.80;0.63;;;26.90;36.60;;;;;;5060306;28;20118;-52
2022/04/15 10:47:00;;;;;;;3.03;0.30;;;26.90;36.40;;;;;;5045601;28;20836;-54
2022/04/15 10:49:30;;;;;;;0.68;0.10;;;26.90;36.20;;;;;;5062420;28;20041;-54
2022/04/15 10:52:02;;;;;;;0.47;0.17;;;26.90;36.80;;;;;;5062607;28;20047;-52
2022/04/15 10:54:34;;;;;;;0.10;0.00;;;27.00;35.90;;;;;;5061944;28;20041;-55
2022/04/15 10:57:04;;;;;;;2.10;0.10;;;27.00;35.90;;;;;;5051204;28;20037;-55
2022/04/15 11:02:17;;;;;;;0.08;0.00;;;26.90;34.90;;;;;;5056877;28;20605;-55
2022/04/15 11:04:49;;;;;;;2.13;0.10;;;26.80;34.70;;;;;;5059725;28;20044;-49
2022/04/15 11:07:25;;;;;;;2.13;0.10;;;26.70;35.10;;;;;;5062117;28;20044;-61
2022/04/15 11:09:52;;;;;;;;;;;26.60;35.50;;;;;;5058221;28;20045;-61
2022/04/15 11:12:31;;;;;;;1.77;0.10;;;26.60;35.20;;;;;;5062577;28;19969;-53
2022/04/15 11:14:58;;;;;;;1.67;0.10;;;26.60;35.00;;;;;;5047020;28;20037;-56
2022/04/15 11:17:39;;;;;;;2.33;0.10;;;26.60;35.10;;;;;;5057385;28;20037;-54
2022/04/15 11:20:08;;;;;;;1.65;0.00;;;26.70;34.90;;;;;;5047126;28;20428;-54
2022/04/15 11:22:39;;;;;;;2.20;0.00;;;26.70;34.50;;;;;;5028825;28;20412;-51
2022/04/15 11:25:08;;;;;;;0.95;0.10;;;26.80;34.40;;;;;;5073478;28;20232;-48
2022/04/15 11:27:39;;;;;;;0.15;0.10;;;27.00;34.50;;;;;;5067404;28;20645;-54
2022/04/15 11:30:13;;;;;;;0.30;0.00;;;27.10;33.90;;;;;;5061290;28;20063;-57
2022/04/15 11:32:47;;;;;;;0.08;0.00;;;27.20;33.80;;;;;;5063067;28;20131;-57
2022/04/15 11:35:27;;;;;;;0.30;0.00;;;27.30;33.60;;;;;;5049464;28;20855;-60
2022/04/15 11:38:03;;;;;;;0.57;0.10;;;27.40;33.30;;;;;;5063816;28;20408;-61
2022/04/15 11:40:31;;;;;;;8.77;0.43;;;27.50;34.10;;;;;;5047430;28;20041;-69
2022/04/15 11:42:59;;;;;;;3.63;0.10;;;27.70;33.10;;;;;;5062594;28;20595;-69
2022/04/15 11:45:35;;;;;;;0.85;0.47;;;27.90;32.80;;;;;;5061378;28;20052;-60
2022/04/15 11:48:20;;;;;;;7.97;0.10;;;28.00;33.40;;;;;;5013563;28;20068;-57
2022/04/15 11:50:48;;;;;;;0.98;0.10;;;28.20;33.30;;;;;;5062331;28;20055;-54
2022/04/15 11:53:15;;;;;;;1.00;0.00;;;28.30;32.80;;;;;;5061941;28;20049;-58
2022/04/15 11:55:51;;;;;;;0.70;0.00;;;28.40;32.30;;;;;;5042011;28;20051;-59
2022/04/15 11:58:21;;;;;;;0.55;0.10;;;28.60;32.70;;;;;;5059850;28;20087;-62
2022/04/15 12:00:52;;;;;;;0.60;0.35;;;28.70;32.30;;;;;;5059278;28;20036;-59
2022/04/15 12:03:20;;;;;;;0.15;0.10;;;28.90;32.20;;;;;;5060177;28;20055;-76
2022/04/15 12:05:48;;;;;;;0.43;0.22;;;29.00;32.00;;;;;;5060490;28;20041;-71
2022/04/15 12:08:16;;;;;;;0.40;0.10;;;29.10;32.00;;;;;;5061679;28;20048;-70
2022/04/15 12:10:46;;;;;;;1.55;0.10;;;29.20;32.20;;;;;;5059799;28;20074;-70
2022/04/15 12:13:14;;;;;;;0.95;0.10;;;29.40;31.90;;;;;;5060829;28;20041;-74
2022/04/15 12:15:43;;;;;;;0.77;0.08;;;29.40;31.90;;;;;;5059124;28;20037;-70
2022/04/15 12:18:11;;;;;;;0.13;0.08;;;29.50;31.50;;;;;;5061168;28;20033;-68
2022/04/15 12:20:41;;;;;;;0.47;0.00;;;29.60;31.10;;;;;;5063029;28;20410;-69
2022/04/15 12:23:13;;;;;;;0.10;0.10;;;29.70;31.00;;;;;;5060935;28;20082;-70
2022/04/15 12:31:29;;;;;;;1.55;0.10;;;30.00;30.20;;;;;;5065819;28;20127;-64
2022/04/15 12:33:56;;;;;;;0.63;0.10;;;30.20;30.70;;;;;;5046880;28;20053;-51
2022/04/15 12:36:24;;;;;;;0.70;0.10;;;30.20;31.00;;;;;;5065537;28;20699;-55
2022/04/15 12:39:01;;;;;;;2.15;0.98;;;30.30;31.20;;;;;;5065678;28;20718;-58
2022/04/15 12:41:43;;;;;;;0.77;0.20;;;30.40;31.30;;;;;;5062666;28;20102;-67
2022/04/15 12:44:15;;;;;;;2.10;0.45;;;30.60;31.20;;;;;;5063405;28;20173;-54
2022/04/15 12:46:45;;;;;;;2.08;0.10;;;30.60;30.60;;;;;;5065341;28;20049;-60
2022/04/15 12:49:26;;;;;;;4.13;0.10;;;30.70;30.60;;;;;;5065111;28;20694;-64
2022/04/15 12:51:53;;;;;;;2.00;0.10;;;30.80;30.90;;;;;;5061704;28;20044;-66
2022/04/15 12:54:20;;;;;;;2.85;0.10;;;30.80;30.90;;;;;;5063997;28;20128;-59
2022/04/15 12:56:54;;;;;;;1.35;0.10;;;30.90;29.90;;;;;;5066163;28;20159;-59
2022/04/15 12:59:22;;;;;;;0.50;0.10;;;31.00;29.70;;;;;;5066230;28;20058;-60
2022/04/15 13:01:50;;;;;;;3.38;0.22;;;31.00;29.80;;;;;;5054618;28;20792;-60
2022/04/15 13:04:18;;;;;;;1.75;0.25;;;31.10;30.10;;;;;;5060211;28;20066;-60